Burnham, ME (04922)

4:22 AM EDT on September 22, 2014 (GMT -0400)
Hopkins Road | Change Station
CLOSE
Current Station
Personal Weather Station
Location: Plymouth, ME
Elevation: 341 ft
Nearby Weather Stations
Active Advisory: Dense Fog Advisory

Elev 341 ft 44.74 °N, 69.17 °W | Updated 2 minutes ago

Fog
Fog
63.0 °F
Feels Like 63.0 °F
N
0.0
Wind Variable Wind from North
Gusts 0.0 mph

Today
High -- | Low -- °F
--% Chance of Precip.
Yesterday
High -- | Low -- °F
Precip. -- in
6:24 AM 6:34 PM
Waning Crescent, 3% visible
Pressure 29.42 in
Visibility 0.5 miles
Clouds Overcast 200 ft
Dew Point 62 °F
Humidity 97%
Rainfall 0.00 in
Snow Depth Not available.
UV 0 out of 12
Pollen .70 out of 12
Ozone Good
Flu Activity Not available.
METAR KWVL 220815Z 21003KT 1/2SM OVC002 18/16 A2942 RMK AO1

More Conditions Fewer Conditions

Pressure 29.42 in
Visibility 0.5 miles
Clouds Overcast 200 ft
Dew Point 62 °F
Humidity 97%
Rainfall 0.00 in
Snow Depth Not available.
UV 0 out of 12
Pollen .70 out of 12
Ozone Good
Flu Activity Not available.
METAR KWVL 220815Z 21003KT 1/2SM OVC002 18/16 A2942 RMK AO1

More Conditions Fewer Conditions

10-Day Weather Forecast

Almanac

Astronomy

Sep. 22, 2014 Rise Set
Actual Time 6:24 AM EDT 6:34 PM EDT
Civil Twilight 5:55 AM EDT 7:03 PM EDT
Nautical Twilight 5:20 AM EDT 7:38 PM EDT
Astronomical Twilight 4:45 AM EDT 8:13 PM EDT
Moon 4:47 AM EDT 5:42 PM EDT
Length of Visible Light 13h 08m
Length of Day
12h 10m
Tomorrow will be 3m 5s shorter.
Waning Crescent, 3% of the Moon is Illuminated
Today
Waning Crescent
Sep 24
New
Oct 1
First Quarter
Oct 8
Full
Oct 15
Last Quarter

Today's Extremes

State Highs State Lows

Community

WunderPhotos

Upload Photos

1,755,395 photos uploaded!

Nearby

Air Quality

  Air Quality AQ Index Pollutant
Yesterday Good
OZONE
Yesterday Good
PM2.5
Current Good
OZONE
Monday Good
OZONE
Monday Good
PM2.5
Tuesday Good
OZONE
Tuesday Good
PM2.5
Wednesday Good
OZONE
Wednesday Good
PM2.5

Snow Depth

Station Depth Elevation
No new snow has been reported.

Earthquake Activity

City Distance Mag. Time & Date
No recent earthquake activity has been reported nearby.
Minimum magnitude displayed is 2.5.

Coastal Water Temperatures

Place Temperature
Bar Harbor, ME 55.0 °F
Portland, ME 57.9 °F

Nearby Weather Stations